createdAt,value
2019-01-09T00:01:45.809Z,0.41
2019-01-09T00:04:17.440Z,0.41
2019-01-09T00:06:52.061Z,0.41
2019-01-09T00:09:31.102Z,0.38
2019-01-09T00:12:06.468Z,0.37
2019-01-09T00:14:43.021Z,0.40
2019-01-09T00:17:15.054Z,0.41
2019-01-09T00:19:45.521Z,0.38
2019-01-09T00:22:17.331Z,0.35
2019-01-09T00:24:49.247Z,0.38
2019-01-09T00:27:20.396Z,0.30
2019-01-09T00:29:58.291Z,0.36
2019-01-09T00:32:37.544Z,0.37
2019-01-09T00:35:08.415Z,0.41
2019-01-09T00:37:38.925Z,0.43
2019-01-09T00:40:10.438Z,0.45
2019-01-09T00:42:41.343Z,0.39
2019-01-09T00:45:25.617Z,0.40
2019-01-09T00:47:57.643Z,0.40
2019-01-09T00:50:36.410Z,0.38
2019-01-09T00:53:06.906Z,0.41
2019-01-09T00:55:37.577Z,0.41
2019-01-09T00:58:08.323Z,0.42
2019-01-09T01:00:40.252Z,0.42
2019-01-09T01:03:53.491Z,0.37
2019-01-09T01:07:04.565Z,0.37
2019-01-09T01:10:26.592Z,0.39
2019-01-09T01:13:27.980Z,0.38
2019-01-09T01:16:34.068Z,0.40
2019-01-09T01:19:42.151Z,0.35
2019-01-09T01:22:40.912Z,0.37
2019-01-09T01:25:58.468Z,0.36
2019-01-09T01:28:52.326Z,0.37
2019-01-09T01:31:46.396Z,0.34
2019-01-09T01:34:42.832Z,0.38
2019-01-09T01:38:11.595Z,0.38
2019-01-09T01:41:01.710Z,0.39
2019-01-09T01:44:09.700Z,0.32
2019-01-09T01:47:24.107Z,0.40
2019-01-09T01:50:12.436Z,0.46
2019-01-09T01:53:09.461Z,0.50
2019-01-09T01:56:24.922Z,0.48
2019-01-09T01:59:04.839Z,0.50
2019-01-09T02:02:25.638Z,0.49
2019-01-09T02:05:52.154Z,0.50
2019-01-09T02:09:05.439Z,0.52
2019-01-09T02:12:03.346Z,0.51
2019-01-09T02:15:06.360Z,0.49
2019-01-09T02:17:53.965Z,0.51
2019-01-09T02:21:03.401Z,0.45
2019-01-09T02:24:09.151Z,0.45
2019-01-09T02:27:01.873Z,0.40
2019-01-09T02:30:27.261Z,0.36
2019-01-09T02:32:57.911Z,0.38
2019-01-09T02:35:28.609Z,0.38
2019-01-09T02:38:01.092Z,0.38
2019-01-09T02:40:32.360Z,0.41
2019-01-09T02:43:03.234Z,0.43
2019-01-09T02:45:35.490Z,0.51
2019-01-09T02:48:06.290Z,0.49
2019-01-09T02:50:36.960Z,0.48
2019-01-09T02:53:09.860Z,0.56
2019-01-09T02:55:41.943Z,0.54
2019-01-09T02:58:15.351Z,0.53
2019-01-09T03:00:46.570Z,0.54
2019-01-09T03:03:18.766Z,0.48
2019-01-09T03:05:51.014Z,0.49
2019-01-09T03:08:23.753Z,0.50
2019-01-09T03:10:57.124Z,0.53
2019-01-09T03:13:30.910Z,0.50
2019-01-09T03:16:03.615Z,0.48
2019-01-09T03:18:35.946Z,0.50
2019-01-09T03:21:09.478Z,0.46
2019-01-09T03:23:41.473Z,0.41
2019-01-09T03:26:12.079Z,0.44
2019-01-09T03:28:42.594Z,0.36
2019-01-09T03:31:13.302Z,0.49
2019-01-09T03:33:45.643Z,0.49
2019-01-09T03:36:18.586Z,0.52
2019-01-09T03:38:53.402Z,0.51
2019-01-09T03:41:26.468Z,0.44
2019-01-09T03:43:56.767Z,0.45
2019-01-09T03:46:28.353Z,0.41
2019-01-09T03:48:58.987Z,0.41
2019-01-09T03:51:29.590Z,0.42
2019-01-09T03:54:00.259Z,0.41
2019-01-09T03:56:32.977Z,0.39
2019-01-09T03:59:03.745Z,0.37
2019-01-09T04:01:37.024Z,0.38
2019-01-09T04:04:07.397Z,0.42
2019-01-09T04:06:41.933Z,0.48
2019-01-09T04:09:09.872Z,0.48
2019-01-09T04:11:40.472Z,0.47
2019-01-09T04:14:12.871Z,0.51
2019-01-09T04:16:48.748Z,0.29
2019-01-09T04:19:19.430Z,0.52
2019-01-09T04:21:54.334Z,0.50
2019-01-09T04:24:30.025Z,0.47
2019-01-09T04:27:00.316Z,0.50
2019-01-09T04:29:32.537Z,0.51
2019-01-09T04:32:05.925Z,0.48
2019-01-09T04:34:37.748Z,0.45
2019-01-09T04:37:08.408Z,0.41
2019-01-09T04:39:42.249Z,0.37
2019-01-09T04:42:13.514Z,0.39
2019-01-09T04:44:43.865Z,0.39
2019-01-09T04:47:14.226Z,0.43
2019-01-09T04:49:44.607Z,0.41
2019-01-09T04:52:15.390Z,0.37
2019-01-09T04:54:45.677Z,0.39
2019-01-09T04:57:16.612Z,0.43
2019-01-09T04:59:47.039Z,0.36
2019-01-09T05:02:17.430Z,0.27
2019-01-09T05:05:05.389Z,0.35
2019-01-09T05:07:36.370Z,0.34
2019-01-09T05:10:09.397Z,0.35
2019-01-09T05:12:40.495Z,0.35
2019-01-09T05:15:11.061Z,0.34
2019-01-09T05:17:44.269Z,0.39
2019-01-09T05:20:16.285Z,0.34
2019-01-09T05:22:55.516Z,0.40
2019-01-09T05:25:26.209Z,0.38
2019-01-09T05:28:00.253Z,0.39
2019-01-09T05:30:30.987Z,0.46
2019-01-09T05:33:01.713Z,0.53
2019-01-09T05:35:32.062Z,0.52
2019-01-09T05:38:02.584Z,0.47
2019-01-09T05:40:33.052Z,0.47
2019-01-09T05:43:27.814Z,0.43
2019-01-09T05:46:04.002Z,0.47
2019-01-09T05:48:37.679Z,0.49
2019-01-09T05:51:09.797Z,0.47
2019-01-09T05:53:40.765Z,0.47
2019-01-09T05:56:22.553Z,0.47
2019-01-09T05:59:03.423Z,0.41
2019-01-09T06:01:42.738Z,0.42
2019-01-09T06:04:13.628Z,0.47
2019-01-09T06:06:49.129Z,0.47
2019-01-09T06:09:25.010Z,0.50
2019-01-09T06:12:01.238Z,0.48
2019-01-09T06:14:40.617Z,0.48
2019-01-09T06:17:15.733Z,0.48
2019-01-09T06:19:49.968Z,0.41
2019-01-09T06:22:22.235Z,0.47
2019-01-09T06:24:55.376Z,0.47
2019-01-09T06:27:25.731Z,0.42
2019-01-09T06:29:57.830Z,0.43
2019-01-09T06:32:28.757Z,0.43
2019-01-09T06:35:04.790Z,0.43
2019-01-09T06:37:35.510Z,0.41
2019-01-09T06:40:09.298Z,0.40
2019-01-09T06:42:39.844Z,0.38
2019-01-09T06:45:10.441Z,0.36
2019-01-09T06:47:44.032Z,0.30
2019-01-09T06:50:19.484Z,0.36
2019-01-09T06:52:49.773Z,0.14
2019-01-09T06:55:24.928Z,0.40
2019-01-09T06:57:58.480Z,0.46
2019-01-09T07:00:30.527Z,0.42
2019-01-09T07:03:02.654Z,0.37
2019-01-09T07:05:33.326Z,0.40
2019-01-09T07:08:03.962Z,0.38
2019-01-09T07:10:34.541Z,0.39
2019-01-09T07:13:08.938Z,0.41
2019-01-09T07:15:42.405Z,0.45
2019-01-09T07:18:12.936Z,0.42
2019-01-09T07:20:43.272Z,0.41
2019-01-09T07:23:13.789Z,0.42
2019-01-09T07:25:46.503Z,0.49
2019-01-09T07:28:16.838Z,0.50
2019-01-09T07:30:47.875Z,0.50
2019-01-09T07:33:20.100Z,0.46
2019-01-09T07:35:52.230Z,0.41
2019-01-09T07:38:22.916Z,0.43
2019-01-09T07:40:53.392Z,0.41
2019-01-09T07:43:26.784Z,0.36
2019-01-09T07:45:58.371Z,0.38
2019-01-09T07:48:28.899Z,0.37
2019-01-09T07:51:00.785Z,0.30
2019-01-09T07:53:31.182Z,0.27
2019-01-09T07:56:01.920Z,0.30
2019-01-09T07:58:34.133Z,0.33
2019-01-09T08:01:06.405Z,0.32
2019-01-09T08:03:38.546Z,0.25
2019-01-09T08:06:09.484Z,0.30
2019-01-09T08:08:45.218Z,0.07
2019-01-09T08:11:15.851Z,0.29
2019-01-09T08:13:49.553Z,0.33
2019-01-09T08:16:25.242Z,0.35
2019-01-09T08:18:56.915Z,0.34
2019-01-09T08:21:30.582Z,0.39
2019-01-09T08:24:01.293Z,0.41
2019-01-09T08:26:32.100Z,0.47
2019-01-09T08:29:02.554Z,0.49
2019-01-09T08:31:33.714Z,0.46
2019-01-09T08:34:07.080Z,0.49
2019-01-09T08:36:37.397Z,0.46
2019-01-09T08:39:11.935Z,0.51
2019-01-09T08:41:42.563Z,0.57
2019-01-09T08:44:13.453Z,0.58
2019-01-09T08:46:44.024Z,0.61
2019-01-09T08:49:14.991Z,0.67
2019-01-09T08:51:45.811Z,0.63
2019-01-09T08:54:18.915Z,0.67
2019-01-09T08:56:52.678Z,0.72
2019-01-09T08:59:23.203Z,0.77
2019-01-09T09:01:54.030Z,0.85
2019-01-09T09:04:26.655Z,0.95
2019-01-09T09:06:59.673Z,1.02
2019-01-09T09:09:57.839Z,1.03
2019-01-09T09:12:46.987Z,1.08
2019-01-09T09:15:26.178Z,1.10
2019-01-09T09:17:56.941Z,1.06
2019-01-09T09:20:46.483Z,1.14
2019-01-09T09:24:59.141Z,1.15
2019-01-09T09:27:45.455Z,1.20
2019-01-09T09:29:00.238Z,1.24
2019-01-09T09:32:02.737Z,1.36
2019-01-09T09:34:55.875Z,1.42
2019-01-09T09:37:51.684Z,1.47
2019-01-09T09:40:58.552Z,1.65
2019-01-09T09:43:33.498Z,1.68
2019-01-09T09:49:04.573Z,1.52
2019-01-09T09:52:11.647Z,1.58
2019-01-09T09:58:05.886Z,1.63
2019-01-09T10:01:37.019Z,1.58
2019-01-09T10:04:25.400Z,1.66
2019-01-09T10:06:57.645Z,1.60
2019-01-09T10:09:32.234Z,1.61
2019-01-09T10:12:14.844Z,1.48
2019-01-09T10:14:56.130Z,1.59
2019-01-09T10:20:37.751Z,1.79
2019-01-09T10:23:18.059Z,1.80
2019-01-09T10:26:29.886Z,1.93
2019-01-09T10:29:26.417Z,2.12
2019-01-09T10:31:59.247Z,2.27
2019-01-09T10:34:41.252Z,2.34
2019-01-09T10:37:13.925Z,2.36
2019-01-09T10:39:44.666Z,2.47
2019-01-09T10:42:17.098Z,2.61
2019-01-09T10:44:48.059Z,2.98
2019-01-09T10:47:18.986Z,4.78
2019-01-09T10:49:49.580Z,4.78
2019-01-09T10:52:20.267Z,5.28
2019-01-09T10:54:50.897Z,4.87
2019-01-09T10:57:20.891Z,4.30
2019-01-09T10:59:55.784Z,3.96
2019-01-09T11:02:26.392Z,3.24
2019-01-09T11:04:57.294Z,2.83
2019-01-09T11:07:30.633Z,2.52
2019-01-09T11:10:03.552Z,2.34
2019-01-09T11:12:41.482Z,2.47
2019-01-09T11:15:15.862Z,2.48
2019-01-09T11:17:47.667Z,2.55
2019-01-09T11:20:23.159Z,2.58
2019-01-09T11:22:59.961Z,2.50
2019-01-09T11:25:33.582Z,2.40
2019-01-09T11:28:10.780Z,2.27
2019-01-09T11:30:55.789Z,2.09
2019-01-09T11:33:30.436Z,2.03
2019-01-09T11:36:03.392Z,1.91
2019-01-09T11:38:38.677Z,1.82
2019-01-09T11:41:13.525Z,1.82
2019-01-09T11:43:47.785Z,1.86
2019-01-09T11:46:21.389Z,1.93
2019-01-09T11:48:53.531Z,1.89
2019-01-09T11:51:28.095Z,1.80
2019-01-09T11:53:59.491Z,1.82
2019-01-09T11:56:32.076Z,1.89
2019-01-09T11:59:05.871Z,1.74
2019-01-09T12:01:36.749Z,1.64
2019-01-09T12:04:08.906Z,1.64
2019-01-09T12:06:49.121Z,1.68
2019-01-09T12:09:24.105Z,1.70
2019-01-09T12:12:03.106Z,1.69
2019-01-09T12:14:36.424Z,1.71
2019-01-09T12:17:54.712Z,1.69
2019-01-09T12:20:33.303Z,1.60
2019-01-09T12:23:07.953Z,1.59
2019-01-09T12:26:10.827Z,1.53
2019-01-09T12:29:14.140Z,1.51
2019-01-09T12:32:46.902Z,1.54
2019-01-09T12:34:49.394Z,1.55
2019-01-09T12:37:26.262Z,1.45
2019-01-09T12:40:03.490Z,1.42
2019-01-09T12:42:38.690Z,1.41
2019-01-09T12:45:15.161Z,1.44
2019-01-09T12:47:45.808Z,1.40
2019-01-09T12:50:48.798Z,1.33
2019-01-09T12:53:34.130Z,1.38
2019-01-09T12:56:21.974Z,1.48
2019-01-09T12:59:22.128Z,1.40
2019-01-09T13:02:11.189Z,1.42
2019-01-09T13:05:19.681Z,1.36
2019-01-09T13:07:43.610Z,1.33
2019-01-09T13:11:02.189Z,1.22
2019-01-09T13:13:44.863Z,1.22
2019-01-09T13:16:47.660Z,1.20
2019-01-09T13:19:31.448Z,1.19
2019-01-09T13:22:08.209Z,1.15
2019-01-09T13:24:43.499Z,1.12
2019-01-09T13:27:18.673Z,1.02
2019-01-09T13:30:25.469Z,1.08
2019-01-09T13:33:22.466Z,1.06
2019-01-09T13:35:44.652Z,1.05
2019-01-09T13:38:15.317Z,1.01
2019-01-09T13:40:50.849Z,0.99
2019-01-09T13:43:30.512Z,0.87
2019-01-09T13:46:16.633Z,0.75
2019-01-09T13:48:48.884Z,0.71
2019-01-09T13:51:19.540Z,0.60
2019-01-09T13:54:12.209Z,0.62
2019-01-09T13:56:47.123Z,0.54
2019-01-09T13:59:26.263Z,0.49
2019-01-09T14:02:00.282Z,0.43
2019-01-09T14:04:55.993Z,0.26
2019-01-09T14:07:41.995Z,0.18
2019-01-09T14:10:24.416Z,0.07
2019-01-09T14:13:58.850Z,-0.03
2019-01-09T14:16:08.099Z,-0.20
2019-01-09T14:18:40.423Z,-0.24
2019-01-09T14:21:11.601Z,-0.43
2019-01-09T14:23:44.128Z,-0.41
2019-01-09T14:26:17.750Z,-0.43
2019-01-09T14:29:00.165Z,-0.44
2019-01-09T14:31:38.652Z,-0.46
2019-01-09T14:34:12.106Z,-0.48
2019-01-09T14:36:52.659Z,-0.55
2019-01-09T14:39:47.998Z,-0.61
2019-01-09T14:42:37.543Z,-0.70
2019-01-09T14:45:10.646Z,-0.94
2019-01-09T14:47:48.561Z,-0.57
2019-01-09T14:50:29.325Z,-0.54
2019-01-09T14:53:06.205Z,-0.50
2019-01-09T14:55:46.308Z,-0.37
2019-01-09T14:58:45.775Z,-0.38
2019-01-09T15:01:23.511Z,-0.41
2019-01-09T15:04:16.105Z,-0.40
2019-01-09T15:06:54.078Z,-0.38
2019-01-09T15:10:13.020Z,-0.26
2019-01-09T15:12:18.676Z,-0.23
2019-01-09T15:14:58.078Z,-0.16
2019-01-09T15:17:50.562Z,-0.03
2019-01-09T15:20:28.469Z,0.05
2019-01-09T15:23:03.494Z,0.11
2019-01-09T15:25:53.594Z,0.13
2019-01-09T15:28:55.839Z,0.08
2019-01-09T15:31:46.655Z,0.09
2019-01-09T15:34:17.850Z,0.04
2019-01-09T15:36:51.857Z,-0.05
2019-01-09T15:39:40.740Z,0.00
2019-01-09T15:42:27.370Z,-0.01
2019-01-09T15:44:58.156Z,0.03
2019-01-09T15:47:31.334Z,0.06
2019-01-09T15:50:18.523Z,0.01
2019-01-09T15:52:52.377Z,-0.06
2019-01-09T15:55:37.396Z,-0.10
2019-01-09T15:58:13.378Z,-0.15
2019-01-09T16:01:04.944Z,-0.21
2019-01-09T16:03:51.020Z,-0.22
2019-01-09T16:06:28.966Z,-0.28
2019-01-09T16:09:25.991Z,-0.24
2019-01-09T16:12:02.030Z,-0.28
2019-01-09T16:15:00.355Z,-0.33
2019-01-09T16:17:19.491Z,-0.33
2019-01-09T16:20:03.737Z,-0.24
2019-01-09T16:23:18.070Z,-0.25
2019-01-09T16:25:58.425Z,-0.29
2019-01-09T16:28:41.636Z,-0.31
2019-01-09T16:31:39.404Z,-0.25
2019-01-09T16:34:35.203Z,-0.29
2019-01-09T16:36:58.661Z,-0.41
2019-01-09T16:39:36.794Z,-0.20
2019-01-09T16:42:28.302Z,-0.19
2019-01-09T16:45:06.519Z,-0.29
2019-01-09T16:47:46.138Z,-0.29
2019-01-09T16:50:32.834Z,-0.27
2019-01-09T16:53:15.890Z,-0.24
2019-01-09T16:55:54.054Z,-0.38
2019-01-09T16:58:25.331Z,-0.47
2019-01-09T17:00:57.331Z,-0.39
2019-01-09T17:03:36.854Z,-0.34
2019-01-09T17:09:04.379Z,-0.38
2019-01-09T17:11:38.113Z,-0.38
2019-01-09T17:14:14.579Z,-0.43
2019-01-09T17:16:55.478Z,-0.52
2019-01-09T17:20:12.743Z,-0.50
2019-01-09T17:25:51.865Z,-1.04
2019-01-09T17:28:33.577Z,-0.91
2019-01-09T17:31:26.943Z,-1.03
2019-01-09T17:34:21.522Z,-1.20
2019-01-09T17:40:49.510Z,-1.34
2019-01-09T17:43:52.742Z,-1.39
2019-01-09T17:46:28.461Z,-1.47
2019-01-09T17:49:25.529Z,-1.32
2019-01-09T17:52:16.339Z,-1.39
2019-01-09T17:54:54.645Z,-1.48
2019-01-09T17:57:30.084Z,-1.57
2019-01-09T18:00:06.940Z,-1.65
2019-01-09T18:02:57.940Z,-1.66
2019-01-09T18:05:29.362Z,-1.64
2019-01-09T18:08:01.063Z,-1.68
2019-01-09T18:10:33.549Z,-1.74
2019-01-09T18:13:13.896Z,-1.74
2019-01-09T18:16:01.379Z,-1.81
2019-01-09T18:18:56.896Z,-1.85
2019-01-09T18:21:32.193Z,-1.84
2019-01-09T18:24:34.950Z,-1.94
2019-01-09T18:27:14.666Z,-1.92
2019-01-09T18:29:41.313Z,-2.11
2019-01-09T18:32:41.081Z,-1.99
2019-01-09T18:35:32.144Z,-2.01
2019-01-09T18:38:42.242Z,-1.86
2019-01-09T18:41:42.109Z,-1.77
2019-01-09T18:44:42.394Z,-1.71
2019-01-09T18:47:41.146Z,-1.73
2019-01-09T18:50:48.923Z,-1.69
2019-01-09T18:53:32.008Z,-1.75
2019-01-09T18:56:05.021Z,-1.87
2019-01-09T18:58:47.968Z,-1.98
2019-01-09T19:01:38.281Z,-2.07
2019-01-09T19:04:04.961Z,-2.10
2019-01-09T19:06:40.269Z,-2.10
2019-01-09T19:09:30.754Z,-2.03
2019-01-09T19:12:11.055Z,-2.04
2019-01-09T19:14:52.380Z,-2.10
2019-01-09T19:17:34.577Z,-2.22
2019-01-09T19:20:18.036Z,-2.07
2019-01-09T19:22:59.120Z,-2.07
2019-01-09T19:25:33.642Z,-1.91
2019-01-09T19:28:05.575Z,-1.84
2019-01-09T19:30:39.648Z,-1.78
2019-01-09T19:33:16.079Z,-1.80
2019-01-09T19:35:49.306Z,-1.90
2019-01-09T19:38:30.353Z,-1.87
2019-01-09T19:41:02.822Z,-1.97
2019-01-09T19:43:38.619Z,-2.08
2019-01-09T19:46:29.543Z,-2.15
2019-01-09T19:48:50.754Z,-2.11
2019-01-09T19:51:33.502Z,-2.12
2019-01-09T19:54:06.689Z,-2.12
2019-01-09T19:56:48.502Z,-2.20
2019-01-09T19:59:21.457Z,-2.10
2019-01-09T20:01:58.452Z,-2.00
2019-01-09T20:04:30.833Z,-1.95
2019-01-09T20:07:02.792Z,-1.92
2019-01-09T20:09:33.535Z,-1.91
2019-01-09T20:12:14.962Z,-1.81
2019-01-09T20:14:54.963Z,-1.83
2019-01-09T20:17:32.952Z,-1.88
2019-01-09T20:20:16.339Z,-2.03
2019-01-09T20:22:53.393Z,-2.00
2019-01-09T20:25:39.258Z,-1.99
2019-01-09T20:28:08.495Z,-1.96
2019-01-09T20:30:55.223Z,-1.93
2019-01-09T20:33:54.923Z,-1.99
2019-01-09T20:36:37.759Z,-1.94
2019-01-09T20:39:29.424Z,-1.83
2019-01-09T20:42:13.519Z,-1.82
2019-01-09T20:44:49.138Z,-1.85
2019-01-09T20:47:24.413Z,-1.88
2019-01-09T20:49:59.989Z,-1.84
2019-01-09T20:52:39.042Z,-1.88
2019-01-09T20:55:51.658Z,-1.87
2019-01-09T20:58:15.167Z,-1.98
2019-01-09T21:01:11.189Z,-2.19
2019-01-09T21:04:18.198Z,-2.21
2019-01-09T21:07:18.690Z,-2.19
2019-01-09T21:11:05.427Z,-2.19
2019-01-09T21:17:34.603Z,-2.11
2019-01-09T21:19:55.873Z,-2.24
2019-01-09T21:22:44.337Z,-2.23
2019-01-09T21:25:46.582Z,-2.28
2019-01-09T21:28:45.366Z,-2.35
2019-01-09T21:34:31.643Z,-2.41
2019-01-09T21:37:32.913Z,-2.37
2019-01-09T21:40:03.354Z,-2.41
2019-01-09T21:42:54.947Z,-2.55
2019-01-09T21:45:27.083Z,-2.51
2019-01-09T21:48:17.187Z,-2.57
2019-01-09T21:51:17.109Z,-2.42
2019-01-09T21:54:34.504Z,-2.49
2019-01-09T21:56:53.683Z,-2.59
2019-01-09T21:59:48.038Z,-2.69
2019-01-09T22:02:40.760Z,-2.84
2019-01-09T22:05:47.282Z,-2.88
2019-01-09T22:08:38.015Z,-2.97
2019-01-09T22:14:22.553Z,-3.06
2019-01-09T22:17:12.240Z,-3.10
2019-01-09T22:20:09.964Z,-3.18
2019-01-09T22:22:49.660Z,-3.35
2019-01-09T22:25:46.463Z,-3.41
2019-01-09T22:28:28.706Z,-3.55
2019-01-09T22:31:10.622Z,-3.69
2019-01-09T22:33:55.430Z,-3.86
2019-01-09T22:36:34.092Z,-3.90
2019-01-09T22:39:33.452Z,-4.06
2019-01-09T22:42:16.940Z,-4.18
2019-01-09T22:45:07.606Z,-4.21
2019-01-09T22:48:05.043Z,-4.18
2019-01-09T22:51:05.849Z,-4.25
2019-01-09T22:53:43.639Z,-4.37
2019-01-09T22:56:31.773Z,-4.59
2019-01-09T22:59:06.706Z,-4.40
2019-01-09T23:01:58.368Z,-4.40
2019-01-09T23:04:31.180Z,-4.48
2019-01-09T23:07:36.635Z,-4.61
2019-01-09T23:10:21.797Z,-4.47
2019-01-09T23:13:04.232Z,-4.70
2019-01-09T23:15:41.545Z,-4.67
2019-01-09T23:18:22.660Z,-4.71
2019-01-09T23:21:10.956Z,-4.70
2019-01-09T23:24:06.080Z,-4.72
2019-01-09T23:26:48.548Z,-4.63
2019-01-09T23:29:45.749Z,-4.72
2019-01-09T23:32:47.289Z,-4.85
2019-01-09T23:35:38.398Z,-4.92
2019-01-09T23:38:26.943Z,-4.85
2019-01-09T23:41:32.603Z,-4.97
2019-01-09T23:44:19.649Z,-4.84
2019-01-09T23:47:08.887Z,-4.84
2019-01-09T23:52:49.333Z,-4.95
2019-01-09T23:55:34.993Z,-4.76
2019-01-09T23:58:23.660Z,-4.90
